Time;durP1;ratioP1;P1;durP2;ratioP2;P2;SDS_P1;SDS_P2;PMS_P1;PMS_P2;Temp;Humidity;BMP_temperature;BMP_pressure;BME280_temperature;BME280_humidity;BME280_pressure;Samples;Min_cycle;Max_cycle;Signal;HPM_P1;HPM_P2
2021/01/31 00:01:03;;;;;;;34.65;13.68;;;;;;;20.62;16.45;96900.34;5073282;28;20081;-80
2021/01/31 00:03:30;;;;;;;32.47;13.32;;;;;;;20.27;16.74;96904.84;5072494;28;20041;-80
2021/01/31 00:06:02;;;;;;;31.73;14.27;;;;;;;20.03;17.16;96917.34;5086034;28;20229;-80
2021/01/31 00:08:29;;;;;;;30.10;13.52;;;;;;;19.69;17.26;96909.41;5072856;28;20097;-79
2021/01/31 00:10:56;;;;;;;36.15;14.50;;;;;;;19.65;17.30;96917.03;5074910;28;20037;-80
2021/01/31 00:13:25;;;;;;;33.00;15.02;;;;;;;19.75;17.38;96918.00;5076543;28;20043;-80
2021/01/31 00:15:55;;;;;;;31.75;13.32;;;;;;;20.16;17.06;96926.59;5074457;28;20387;-80
2021/01/31 00:18:28;;;;;;;36.78;14.70;;;;;;;20.87;16.27;96919.97;5073416;28;20040;-80
2021/01/31 00:20:58;;;;;;;35.10;14.82;;;;;;;21.49;15.77;96929.00;5073828;28;20404;-80
2021/01/31 00:23:25;;;;;;;36.03;14.27;;;;;;;21.70;15.54;96928.38;5072741;28;20107;-80
2021/01/31 00:25:51;;;;;;;34.05;15.15;;;;;;;21.65;15.62;96935.28;5073921;28;20039;-80
2021/01/31 00:28:20;;;;;;;31.13;12.98;;;;;;;21.25;15.91;96928.50;5077817;28;20051;-80
2021/01/31 00:30:47;;;;;;;31.02;13.80;;;;;;;20.92;16.19;96927.03;5073524;28;20407;-80
2021/01/31 00:33:19;;;;;;;31.67;13.82;;;;;;;21.03;16.12;96928.28;5075252;28;20067;-80
2021/01/31 00:35:46;;;;;;;29.23;13.07;;;;;;;21.30;15.90;96939.94;5072681;28;20043;-80
2021/01/31 00:38:15;;;;;;;33.40;13.48;;;;;;;21.28;15.82;96931.19;5072724;28;20040;-80
2021/01/31 00:40:42;;;;;;;32.78;11.93;;;;;;;20.77;16.12;96932.19;5077436;28;20074;-80
2021/01/31 00:43:09;;;;;;;31.95;13.60;;;;;;;20.80;16.34;96930.53;5077459;28;20419;-80
2021/01/31 00:45:35;;;;;;;32.30;13.82;;;;;;;20.05;16.74;96934.41;5085050;28;20036;-80
2021/01/31 00:48:02;;;;;;;30.38;12.90;;;;;;;19.96;17.11;96935.03;5075720;28;20111;-80
2021/01/31 00:50:31;;;;;;;29.85;14.43;;;;;;;20.13;16.82;96935.03;5073251;28;20155;-80
2021/01/31 00:52:58;;;;;;;27.35;12.95;;;;;;;20.51;16.42;96925.72;5073044;28;20055;-80
2021/01/31 00:55:24;;;;;;;32.20;14.20;;;;;;;20.99;16.06;96926.81;5071332;28;20044;-80
2021/01/31 00:57:51;;;;;;;34.60;14.13;;;;;;;21.33;15.68;96929.88;5073953;28;20121;-80
2021/01/31 01:00:27;;;;;;;35.15;14.95;;;;;;;21.27;15.75;96934.44;5073651;28;20028;-80
2021/01/31 01:02:53;;;;;;;25.95;12.07;;;;;;;21.18;15.72;96932.28;5073266;28;20042;-80
2021/01/31 01:05:22;;;;;;;25.08;12.27;;;;;;;21.19;15.72;96928.25;5071756;28;20035;-80
2021/01/31 01:07:48;;;;;;;24.83;10.88;;;;;;;21.28;15.91;96922.06;5066551;28;20430;-80
2021/01/31 01:10:18;;;;;;;25.98;11.25;;;;;;;21.34;15.74;96926.63;5072913;28;20505;-80
2021/01/31 01:12:44;;;;;;;30.20;12.65;;;;;;;21.34;15.61;96929.44;5072284;28;20498;-80
2021/01/31 01:15:13;;;;;;;25.48;12.00;;;;;;;21.47;15.71;96932.22;5071685;28;20563;-80
2021/01/31 01:17:39;;;;;;;26.55;11.18;;;;;;;21.22;15.88;96921.81;5072100;28;20075;-80
2021/01/31 01:20:07;;;;;;;27.50;10.43;;;;;;;21.37;15.84;96922.19;5088996;28;20493;-80
2021/01/31 01:22:33;;;;;;;26.40;12.27;;;;;;;21.51;15.39;96926.56;5070708;28;20438;-80
2021/01/31 01:25:02;;;;;;;28.52;11.48;;;;;;;21.40;15.65;96926.09;5070460;28;20037;-82
2021/01/31 01:27:29;;;;;;;24.08;9.98;;;;;;;21.50;15.64;96925.75;5072623;28;20060;-80
2021/01/31 01:29:55;;;;;;;23.80;11.05;;;;;;;21.56;15.63;96914.84;5065367;28;20036;-80
2021/01/31 01:32:22;;;;;;;23.73;10.85;;;;;;;21.72;15.37;96921.13;5075394;28;20032;-80
2021/01/31 01:34:48;;;;;;;25.25;10.52;;;;;;;21.83;15.28;96912.38;5070200;28;20047;-80
2021/01/31 01:37:16;;;;;;;28.73;12.07;;;;;;;22.08;15.12;96912.41;5071108;28;20031;-80
2021/01/31 01:39:42;;;;;;;27.33;12.35;;;;;;;22.29;14.64;96913.72;5065558;28;20404;-80
2021/01/31 01:42:10;;;;;;;24.33;11.18;;;;;;;22.38;14.83;96913.84;5074056;28;20103;-80
2021/01/31 01:44:37;;;;;;;29.20;12.82;;;;;;;22.19;14.78;96904.47;5073043;28;20081;-80
2021/01/31 01:47:08;;;;;;;22.90;9.45;;;;;;;21.88;15.33;96914.66;5082554;28;20029;-80
2021/01/31 01:49:40;;;;;;;29.13;11.30;;;;;;;21.85;15.35;96918.34;5077720;28;20033;-80
2021/01/31 01:52:15;;;;;;;25.38;10.77;;;;;;;21.77;15.14;96911.41;5049518;28;20064;-80
2021/01/31 01:54:45;;;;;;;32.88;12.68;;;;;;;21.78;15.08;96912.94;5071774;28;20040;-80
2021/01/31 01:57:15;;;;;;;34.20;12.88;;;;;;;21.67;15.15;96909.69;5071897;28;20037;-80
2021/01/31 01:59:43;;;;;;;24.65;11.05;;;;;;;21.58;15.21;96913.16;5071261;28;20511;-79
2021/01/31 02:02:31;;;;;;;27.15;10.98;;;;;;;21.63;15.15;96915.41;5071527;28;20024;-80
2021/01/31 02:05:05;;;;;;;24.67;11.25;;;;;;;21.93;14.86;96905.72;5071429;28;20115;-80
2021/01/31 02:07:32;;;;;;;28.55;12.57;;;;;;;21.93;14.94;96917.69;5070217;28;20396;-80
2021/01/31 02:09:58;;;;;;;21.73;9.52;;;;;;;21.95;15.12;96911.63;5072569;28;20042;-80
2021/01/31 02:12:29;;;;;;;27.42;12.77;;;;;;;21.78;15.16;96922.09;5071505;28;20059;-80
2021/01/31 02:15:00;;;;;;;27.02;11.60;;;;;;;21.54;15.26;96914.50;5064059;28;20508;-80
2021/01/31 02:17:41;;;;;;;34.72;14.23;;;;;;;19.99;16.36;96920.22;5070313;28;20032;-80
2021/01/31 02:20:33;;;;;;;;;;;;;;;19.41;17.09;96932.31;5071572;28;20077;-80
2021/01/31 02:23:18;;;;;;;29.58;12.32;;;;;;;18.50;17.94;96946.00;5069049;28;19912;-80
2021/01/31 02:26:07;;;;;;;50.60;19.50;;;;;;;17.43;18.96;96940.47;5071736;28;20036;-80
2021/01/31 02:28:52;;;;;;;28.48;12.75;;;;;;;17.64;18.70;96940.19;5071455;28;20028;-80
2021/01/31 02:31:36;;;;;;;24.92;10.45;;;;;;;17.36;18.73;96940.56;5061231;28;20418;-80
2021/01/31 02:34:31;;;;;;;27.77;12.20;;;;;;;17.03;19.19;96950.47;5071026;28;20044;-80
2021/01/31 02:37:08;;;;;;;25.40;11.38;;;;;;;17.59;18.32;96937.91;5073778;28;20078;-80
2021/01/31 02:39:49;;;;;;;34.58;15.52;;;;;;;16.47;19.13;96951.06;5070600;28;20027;-80
2021/01/31 02:42:24;;;;;;;23.75;11.98;;;;;;;17.81;18.21;96947.47;5071071;28;20059;-80
2021/01/31 02:45:15;;;;;;;27.48;11.95;;;;;;;18.39;17.55;96946.13;5067788;28;20035;-80
2021/01/31 02:47:52;;;;;;;27.25;12.20;;;;;;;18.65;17.43;96950.06;5067328;28;20029;-80
2021/01/31 02:50:29;;;;;;;28.20;13.68;;;;;;;19.07;17.06;96946.47;5073542;28;20037;-80
2021/01/31 02:53:20;;;;;;;28.98;13.65;;;;;;;18.95;17.23;96946.34;5071524;28;20127;-80
2021/01/31 02:56:17;;;;;;;35.35;13.77;;;;;;;18.81;17.13;96954.97;5074886;28;20078;-81
2021/01/31 02:58:50;;;;;;;30.92;14.00;;;;;;;18.40;17.42;96958.03;5064524;28;20438;-81
2021/01/31 03:01:39;;;;;;;26.77;12.48;;;;;;;18.76;17.01;96966.56;5070019;28;20024;-81
2021/01/31 03:04:36;;;;;;;29.45;13.80;;;;;;;19.16;16.55;96945.94;5074501;28;20029;-80
2021/01/31 03:07:50;;;;;;;26.45;12.77;;;;;;;19.24;16.34;96967.59;5044402;28;20047;-80
2021/01/31 03:10:26;;;;;;;31.40;12.18;;;;;;;19.48;15.91;96965.56;5041537;28;20079;-80
2021/01/31 03:13:00;;;;;;;30.08;13.82;;;;;;;19.60;15.76;96958.56;5071672;28;20045;-80
2021/01/31 03:15:30;;;;;;;25.65;10.55;;;;;;;19.70;15.46;96975.00;5069978;28;20041;-80
2021/01/31 03:18:28;;;;;;;25.90;11.43;;;;;;;19.91;15.34;96968.97;5087607;28;20040;-80
2021/01/31 03:21:07;;;;;;;31.55;11.68;;;;;;;19.84;15.53;96979.47;5073993;28;20515;-80
2021/01/31 03:23:46;;;;;;;22.13;9.32;;;;;;;19.86;15.43;96986.19;5070040;28;20029;-80
2021/01/31 03:26:36;;;;;;;26.00;9.85;;;;;;;19.99;15.22;96989.88;5071489;28;20086;-80
2021/01/31 03:29:03;;;;;;;19.45;7.55;;;;;;;20.14;15.33;96983.97;5070675;28;20052;-79
2021/01/31 03:31:32;;;;;;;20.48;8.48;;;;;;;20.14;15.08;96983.97;5072075;28;20093;-80
2021/01/31 03:34:08;;;;;;;28.13;11.32;;;;;;;20.23;14.85;96989.78;5069855;28;20064;-80
2021/01/31 03:36:38;;;;;;;28.30;11.27;;;;;;;20.06;14.90;96982.56;5088428;28;20033;-80
2021/01/31 03:39:04;;;;;;;20.30;8.18;;;;;;;20.08;15.10;96986.50;5072629;28;20039;-80
2021/01/31 03:41:31;;;;;;;23.17;8.88;;;;;;;20.25;14.77;96990.91;5076780;28;20036;-80
2021/01/31 03:43:57;;;;;;;23.48;9.45;;;;;;;20.40;14.79;96994.09;5080533;28;20032;-80
2021/01/31 03:46:30;;;;;;;25.92;10.45;;;;;;;20.31;14.68;96996.72;5075415;28;20036;-80
2021/01/31 03:49:08;;;;;;;25.90;11.40;;;;;;;20.15;14.84;96996.69;5071105;28;20427;-80
2021/01/31 03:51:35;;;;;;;25.80;11.18;;;;;;;20.07;14.97;96998.09;5055662;28;20961;-80
2021/01/31 03:54:04;;;;;;;22.65;9.23;;;;;;;19.99;15.12;96992.66;5049115;28;20116;-80
2021/01/31 03:57:03;;;;;;;25.30;11.65;;;;;;;19.73;14.55;97001.22;5052158;28;20072;-80
2021/01/31 03:59:39;;;;;;;19.27;8.27;;;;;;;19.72;14.93;97000.41;5049454;28;20045;-80
2021/01/31 04:02:07;;;;;;;20.95;8.60;;;;;;;19.87;14.84;96998.91;5050986;28;20064;-80
2021/01/31 04:04:52;;;;;;;24.40;10.02;;;;;;;19.97;14.75;97006.25;5052239;28;20055;-80
2021/01/31 04:07:27;;;;;;;29.83;13.43;;;;;;;19.94;15.16;97009.91;5067975;28;20539;-80
2021/01/31 04:09:54;;;;;;;35.03;14.30;;;;;;;19.79;15.29;97021.78;5061515;28;20094;-80
2021/01/31 04:12:23;;;;;;;29.38;13.13;;;;;;;19.57;15.61;97023.44;5076237;28;20100;-80
2021/01/31 04:15:14;;;;;;;25.73;11.35;;;;;;;19.07;16.21;97029.16;5073735;28;20134;-80
2021/01/31 04:17:43;;;;;;;32.97;12.73;;;;;;;19.03;16.00;97032.00;5068838;28;20036;-80
2021/01/31 04:20:10;;;;;;;28.55;12.25;;;;;;;18.96;16.31;97031.34;5076384;28;20029;-80
2021/01/31 04:22:36;;;;;;;28.02;13.32;;;;;;;19.05;16.12;97037.94;5077324;28;20028;-80
2021/01/31 04:25:03;;;;;;;29.63;13.02;;;;;;;18.78;16.32;97042.00;5077125;28;20035;-81
2021/01/31 04:27:29;;;;;;;26.08;12.52;;;;;;;18.83;16.33;97035.97;5072125;28;20031;-80
2021/01/31 04:29:55;;;;;;;24.80;10.30;;;;;;;19.04;15.95;97038.38;5072921;28;20044;-80
2021/01/31 04:32:21;;;;;;;26.75;11.82;;;;;;;19.14;16.05;97035.38;5076311;28;20032;-80
2021/01/31 04:34:47;;;;;;;27.52;12.32;;;;;;;18.71;16.33;97036.56;5073841;28;20028;-80
2021/01/31 04:37:14;;;;;;;21.17;10.07;;;;;;;18.78;16.24;97033.66;5073650;28;20561;-80
2021/01/31 04:39:40;;;;;;;27.52;11.07;;;;;;;18.76;16.25;97030.53;5076610;28;20036;-80
2021/01/31 04:42:08;;;;;;;22.25;10.20;;;;;;;18.94;16.13;97040.13;5072561;28;20036;-80
2021/01/31 04:44:34;;;;;;;26.30;11.68;;;;;;;18.41;16.63;97040.97;5072417;28;20063;-80
2021/01/31 04:47:11;;;;;;;24.00;10.63;;;;;;;17.47;17.46;97040.28;5074120;28;20040;-80
2021/01/31 04:50:01;;;;;;;24.33;10.45;;;;;;;17.25;17.80;97045.28;5075225;28;20361;-80
2021/01/31 04:52:58;;;;;;;18.63;8.77;;;;;;;17.59;17.30;97051.69;5073410;28;20106;-80
2021/01/31 04:55:39;;;;;;;21.60;8.48;;;;;;;17.76;16.77;97044.34;5078281;28;20044;-80
2021/01/31 04:58:14;;;;;;;;;;;;;;;16.36;18.40;97061.16;5075310;28;20488;-80
2021/01/31 05:00:51;;;;;;;25.58;11.50;;;;;;;13.95;20.75;97067.66;5073501;28;19923;-79
2021/01/31 05:03:20;;;;;;;28.90;11.25;;;;;;;14.48;19.91;97066.56;5074046;28;20024;-80
2021/01/31 05:06:05;;;;;;;22.65;10.00;;;;;;;14.13;20.03;97073.97;5072767;28;20035;-80
2021/01/31 05:08:32;;;;;;;17.65;7.55;;;;;;;15.00;18.76;97069.66;5070938;28;20487;-80
2021/01/31 05:11:27;;;;;;;15.90;7.57;;;;;;;13.40;19.82;97083.59;5069169;28;20031;-80
2021/01/31 05:14:09;;;;;;;16.58;7.07;;;;;;;14.46;19.26;97079.19;5070534;28;20480;-80
2021/01/31 05:16:35;;;;;;;20.20;7.28;;;;;;;16.08;17.29;97077.97;5075113;28;20036;-80
2021/01/31 05:19:11;;;;;;;12.65;5.88;;;;;;;17.47;16.27;97079.94;5079165;28;20043;-80
2021/01/31 05:21:37;;;;;;;13.15;5.80;;;;;;;17.76;15.69;97081.19;5071233;28;20048;-80
2021/01/31 05:24:16;;;;;;;15.57;7.07;;;;;;;17.89;15.42;97081.44;5072825;28;20024;-78
2021/01/31 05:26:48;;;;;;;11.85;6.43;;;;;;;17.92;15.46;97069.50;5075105;28;20032;-79
2021/01/31 05:29:23;;;;;;;13.80;6.20;;;;;;;17.80;15.26;97081.94;5069371;28;20484;-79
2021/01/31 05:32:01;;;;;;;19.08;8.40;;;;;;;15.69;17.18;97078.16;5080315;28;20025;-79
2021/01/31 05:34:42;;;;;;;19.10;8.95;;;;;;;13.24;19.58;97091.38;5078086;28;20085;-80
2021/01/31 05:37:12;;;;;;;13.88;5.70;;;;;;;12.75;20.38;97100.91;5075296;28;20033;-79
2021/01/31 05:39:44;;;;;;;17.88;7.45;;;;;;;12.33;20.73;97104.09;5072515;28;20496;-79
2021/01/31 05:42:16;;;;;;;22.65;8.07;;;;;;;12.65;19.76;97100.84;5075098;28;20032;-79
2021/01/31 05:44:43;;;;;;;14.57;7.38;;;;;;;11.58;21.40;97109.94;5077166;28;20038;-79
2021/01/31 05:47:22;;;;;;;13.35;5.97;;;;;;;13.02;20.39;97118.03;5073182;28;20032;-79
2021/01/31 05:49:52;;;;;;;15.55;6.50;;;;;;;13.63;19.30;97114.41;5070753;28;20036;-79
2021/01/31 05:52:21;;;;;;;14.13;6.03;;;;;;;14.41;18.48;97115.47;5071164;28;20024;-79
2021/01/31 05:54:49;;;;;;;8.77;4.18;;;;;;;16.36;16.65;97117.31;5074961;28;20044;-79
2021/01/31 05:57:25;;;;;;;9.85;4.03;;;;;;;17.57;15.33;97122.69;5076111;28;20126;-79
2021/01/31 05:59:51;;;;;;;16.20;5.57;;;;;;;17.74;15.01;97127.22;5061568;28;20064;-79
2021/01/31 06:02:26;;;;;;;10.63;4.65;;;;;;;18.24;14.48;97136.50;5071903;28;20539;-80
2021/01/31 06:05:11;;;;;;;16.08;8.20;;;;;;;18.74;13.92;97146.94;5083322;28;20028;-79
2021/01/31 06:07:39;;;;;;;14.85;7.35;;;;;;;18.77;14.25;97141.31;5071635;28;20074;-79
2021/01/31 06:10:11;;;;;;;16.17;7.40;;;;;;;18.96;14.09;97145.38;5071495;28;20510;-79
2021/01/31 06:12:38;;;;;;;16.75;6.97;;;;;;;19.18;14.05;97155.72;5073359;28;20502;-79
2021/01/31 06:15:21;;;;;;;13.57;6.47;;;;;;;19.21;13.98;97154.09;5084678;28;20419;-79
2021/01/31 06:18:00;;;;;;;15.32;6.68;;;;;;;19.34;14.05;97157.88;5068300;28;20152;-79
2021/01/31 06:20:31;;;;;;;18.38;7.38;;;;;;;19.52;13.82;97146.44;5089172;28;20441;-80
2021/01/31 06:22:57;;;;;;;;;;;;;;;19.49;13.62;97155.63;5075924;28;20036;-79
2021/01/31 06:25:26;;;;;;;12.57;6.10;;;;;;;19.47;13.63;97155.25;5085811;28;20387;-79
2021/01/31 06:28:18;;;;;;;11.98;5.40;;;;;;;19.51;13.14;97153.22;5073305;28;20036;-79
2021/01/31 06:31:04;;;;;;;12.88;5.35;;;;;;;19.72;12.91;97161.94;5070901;28;20041;-79
2021/01/31 06:33:31;;;;;;;12.57;4.90;;;;;;;19.96;12.59;97168.25;5040500;28;20055;-79
2021/01/31 06:36:14;;;;;;;8.27;4.35;;;;;;;19.92;12.63;97162.75;5084246;28;20020;-79
2021/01/31 06:39:03;;;;;;;11.45;5.80;;;;;;;19.80;12.81;97171.75;5070346;28;20120;-79
2021/01/31 06:41:41;;;;;;;16.63;5.82;;;;;;;19.70;12.55;97181.09;5034226;28;20415;-80
2021/01/31 06:44:27;;;;;;;14.30;6.47;;;;;;;19.64;12.61;97179.22;5077956;28;20024;-80
2021/01/31 06:46:53;;;;;;;17.48;6.70;;;;;;;19.68;12.74;97177.94;5072653;28;20107;-80
2021/01/31 06:49:47;;;;;;;17.05;6.63;;;;;;;19.32;13.09;97186.09;5071256;28;20043;-80
2021/01/31 06:52:25;;;;;;;20.17;7.88;;;;;;;19.26;13.36;97181.44;5074772;28;20488;-80
2021/01/31 06:54:57;;;;;;;20.25;7.35;;;;;;;19.53;13.36;97185.00;5068983;28;20051;-80
2021/01/31 06:57:42;;;;;;;9.35;4.07;;;;;;;19.69;13.30;97181.53;5080345;28;20032;-81
2021/01/31 07:00:26;;;;;;;9.73;4.47;;;;;;;19.60;13.34;97179.31;5075840;28;20048;-81
2021/01/31 07:03:14;;;;;;;14.07;5.93;;;;;;;19.93;13.32;97183.03;5071722;28;20545;-81
2021/01/31 07:05:43;;;;;;;14.85;7.07;;;;;;;19.53;13.52;97187.78;5078383;28;20061;-81
2021/01/31 07:08:24;;;;;;;14.90;6.22;;;;;;;19.31;13.77;97190.13;5065107;28;20518;-81
2021/01/31 07:11:47;;;;;;;15.43;6.97;;;;;;;19.23;13.98;97187.84;5056551;28;20443;-80
2021/01/31 07:14:25;;;;;;;14.75;5.65;;;;;;;19.71;13.78;97195.81;5050441;28;20044;-81
2021/01/31 07:17:15;;;;;;;10.85;4.85;;;;;;;20.37;13.48;97190.16;5051673;28;20040;-81
2021/01/31 07:20:17;;;;;;;10.00;4.70;;;;;;;20.85;12.87;97186.69;5068593;28;20395;-81
2021/01/31 07:22:50;;;;;;;13.52;6.32;;;;;;;21.02;12.58;97188.28;5046305;28;20052;-81
2021/01/31 07:25:27;;;;;;;12.55;5.85;;;;;;;21.12;12.68;97187.28;5079322;28;20419;-81
2021/01/31 07:28:22;;;;;;;10.32;5.13;;;;;;;21.19;12.45;97184.31;5074794;28;20032;-81
2021/01/31 07:31:09;;;;;;;21.20;8.98;;;;;;;21.17;12.38;97186.72;5076229;28;20032;-81
2021/01/31 07:33:59;;;;;;;19.73;8.43;;;;;;;20.93;12.60;97197.25;5077774;28;20090;-81
2021/01/31 07:36:34;;;;;;;15.73;7.20;;;;;;;21.02;12.38;97205.03;5074125;28;20434;-81
2021/01/31 07:39:06;;;;;;;15.18;6.65;;;;;;;21.14;12.42;97201.56;5076746;28;20492;-81
2021/01/31 07:41:33;;;;;;;19.27;7.95;;;;;;;21.39;12.55;97204.53;5077556;28;20476;-81
2021/01/31 07:44:07;;;;;;;16.23;8.32;;;;;;;21.48;12.75;97203.91;5074640;28;20032;-81
2021/01/31 07:46:33;;;;;;;24.35;10.13;;;;;;;21.81;12.55;97202.66;5073885;28;20400;-81
2021/01/31 07:49:02;;;;;;;25.05;10.40;;;;;;;22.01;12.56;97206.91;5083289;28;20032;-81
2021/01/31 07:51:36;;;;;;;21.35;9.98;;;;;;;22.10;12.21;97209.06;5100123;28;20037;-81
2021/01/31 07:54:21;;;;;;;18.98;8.63;;;;;;;21.20;12.74;97211.00;5072245;28;20048;-81
2021/01/31 07:56:48;;;;;;;11.90;6.65;;;;;;;21.01;12.92;97209.81;5071200;28;20044;-82
2021/01/31 07:59:14;;;;;;;12.57;6.53;;;;;;;20.70;13.22;97204.97;5070293;28;20033;-81
2021/01/31 08:01:40;;;;;;;12.23;5.95;;;;;;;20.64;13.23;97207.47;5085388;28;20043;-79
2021/01/31 08:04:20;;;;;;;14.90;6.45;;;;;;;20.74;13.12;97214.81;5075050;28;20027;-80
2021/01/31 08:06:56;;;;;;;14.27;7.57;;;;;;;21.31;13.48;97208.72;5075055;28;20052;-79
2021/01/31 08:09:27;;;;;;;26.45;11.32;;;;;;;21.86;13.34;97213.31;5064154;28;20117;-80
2021/01/31 08:12:05;;;;;;;22.77;12.10;;;;;;;22.22;12.92;97205.53;5071383;28;20029;-80
2021/01/31 08:15:05;;;;;;;43.28;15.15;;;;;;;22.57;12.46;97207.28;5073651;28;20052;-80
2021/01/31 08:17:39;;;;;;;23.98;9.20;;;;;;;23.19;11.36;97205.81;5074309;28;20032;-80
2021/01/31 08:20:23;;;;;;;20.40;8.75;;;;;;;22.73;11.56;97205.69;5072254;28;20399;-80
2021/01/31 08:22:50;;;;;;;24.75;10.48;;;;;;;22.84;11.82;97209.72;5070706;28;20035;-80
2021/01/31 08:25:19;;;;;;;19.27;7.18;;;;;;;23.02;11.72;97206.34;5068802;28;20396;-80
2021/01/31 08:28:09;;;;;;;15.77;6.70;;;;;;;22.90;11.58;97207.13;5076132;28;20043;-80
2021/01/31 08:30:36;;;;;;;16.80;7.38;;;;;;;22.62;11.56;97209.56;5069515;28;20178;-81
2021/01/31 08:33:27;;;;;;;19.65;6.85;;;;;;;21.84;11.59;97218.56;5075265;28;20032;-80
2021/01/31 08:35:57;;;;;;;12.85;5.82;;;;;;;21.33;12.36;97223.06;5055348;28;20040;-80
2021/01/31 08:38:32;;;;;;;15.90;6.85;;;;;;;21.44;12.51;97229.16;5065374;28;20507;-81
2021/01/31 08:41:01;;;;;;;29.92;12.65;;;;;;;21.74;12.60;97225.19;5074335;28;20111;-80
2021/01/31 08:43:39;;;;;;;46.92;18.75;;;;;;;21.99;12.49;97220.53;5059807;28;20040;-81
2021/01/31 08:46:30;;;;;;;22.77;9.35;;;;;;;22.10;11.99;97225.06;5070215;28;20043;-79
2021/01/31 08:49:10;;;;;;;15.82;5.90;;;;;;;21.92;11.82;97228.31;5073481;28;20436;-80
2021/01/31 08:51:39;;;;;;;13.02;5.30;;;;;;;21.90;11.35;97227.97;5072040;28;20028;-80
2021/01/31 08:54:16;;;;;;;17.85;6.63;;;;;;;21.70;11.65;97225.28;5073193;28;20492;-80
2021/01/31 08:56:44;;;;;;;14.45;6.35;;;;;;;21.33;11.62;97232.19;5055055;28;20037;-80
2021/01/31 08:59:15;;;;;;;13.25;6.30;;;;;;;20.08;12.40;97236.47;5075592;28;20037;-80
2021/01/31 09:01:44;;;;;;;11.88;4.93;;;;;;;19.98;12.31;97236.25;5063819;28;20045;-80
2021/01/31 09:04:13;;;;;;;19.33;8.00;;;;;;;19.52;13.29;97235.50;5059813;28;20071;-79
2021/01/31 09:06:41;;;;;;;20.38;8.00;;;;;;;20.18;12.65;97233.50;5062188;28;20119;-80
2021/01/31 09:09:14;;;;;;;15.70;6.65;;;;;;;20.12;12.85;97231.66;5056514;28;20025;-80
2021/01/31 09:11:41;;;;;;;6.22;3.00;;;;;;;19.62;12.16;97229.78;5059450;28;20447;-80
2021/01/31 09:14:15;;;;;;;6.10;2.30;;;;;;;18.81;12.45;97231.03;5063273;28;20037;-81
2021/01/31 09:16:42;;;;;;;6.35;3.20;;;;;;;17.06;13.59;97238.03;5045735;28;20158;-80
2021/01/31 09:19:24;;;;;;;6.28;3.03;;;;;;;15.88;14.99;97239.00;5042905;28;20531;-80
2021/01/31 09:21:55;;;;;;;9.55;4.03;;;;;;;15.02;15.74;97238.66;5042975;28;20021;-80
2021/01/31 09:24:25;;;;;;;8.05;3.08;;;;;;;15.47;15.67;97243.44;5039187;28;20038;-80
2021/01/31 09:26:55;;;;;;;6.63;3.03;;;;;;;16.13;15.05;97240.88;5045563;28;20037;-80
2021/01/31 09:29:28;;;;;;;5.82;2.50;;;;;;;17.88;13.79;97232.56;5045344;28;20437;-80
2021/01/31 09:32:05;;;;;;;6.88;3.00;;;;;;;16.25;13.92;97234.91;5043962;28;20104;-80
2021/01/31 09:34:32;;;;;;;6.60;2.70;;;;;;;15.78;15.24;97237.03;5043860;28;20481;-80
2021/01/31 09:37:21;;;;;;;6.80;2.30;;;;;;;17.23;13.46;97231.56;5042768;28;20075;-81
2021/01/31 09:39:48;;;;;;;7.45;3.90;;;;;;;15.61;15.71;97237.84;5040314;28;20033;-80
2021/01/31 09:42:16;;;;;;;9.18;4.00;;;;;;;13.66;16.93;97235.00;5045313;28;20029;-82
2021/01/31 09:45:08;;;;;;;8.68;3.90;;;;;;;13.56;17.81;97242.03;5061363;28;20039;-82
2021/01/31 09:47:35;;;;;;;9.02;4.25;;;;;;;14.53;17.06;97234.63;5043524;28;20029;-81
2021/01/31 09:50:08;;;;;;;8.55;4.07;;;;;;;15.29;16.36;97234.31;5049302;28;20033;-80
2021/01/31 09:52:45;;;;;;;9.57;4.78;;;;;;;15.18;16.17;97239.06;5038801;28;20094;-79
2021/01/31 09:55:41;;;;;;;11.18;4.93;;;;;;;15.31;16.04;97245.00;5033296;28;20024;-79
2021/01/31 09:58:44;;;;;;;8.15;3.63;;;;;;;16.63;14.60;97242.28;5043914;28;20044;-79
2021/01/31 10:01:15;;;;;;;6.82;3.42;;;;;;;15.99;15.13;97241.72;5031965;28;20041;-78
2021/01/31 10:03:42;;;;;;;8.15;3.88;;;;;;;16.28;15.35;97236.88;5049163;28;20056;-78
2021/01/31 10:06:12;;;;;;;7.95;3.67;;;;;;;18.15;13.80;97236.25;5043047;28;20791;-79
2021/01/31 10:08:51;;;;;;;6.32;3.33;;;;;;;19.11;13.77;97233.75;5048501;28;20083;-79
2021/01/31 10:11:44;;;;;;;5.07;2.63;;;;;;;20.18;11.87;97247.44;5050117;28;20036;-79
2021/01/31 10:14:44;;;;;;;5.88;3.00;;;;;;;21.11;11.37;97239.50;5040467;28;20025;-79
2021/01/31 10:17:35;;;;;;;8.13;3.10;;;;;;;21.01;11.93;97240.50;5030804;28;20392;-79
2021/01/31 10:20:28;;;;;;;6.38;2.72;;;;;;;19.83;11.79;97246.13;5052605;28;20394;-79
2021/01/31 10:23:15;;;;;;;5.25;2.72;;;;;;;20.43;12.93;97242.19;5061716;28;20055;-79
2021/01/31 10:25:55;;;;;;;6.35;2.58;;;;;;;20.45;11.96;97244.53;5068946;28;20555;-79
2021/01/31 10:28:36;;;;;;;3.50;2.30;;;;;;;20.02;12.27;97239.00;5051695;28;20039;-79
2021/01/31 10:31:05;;;;;;;5.38;2.45;;;;;;;20.85;12.18;97228.53;5065873;28;20033;-77
2021/01/31 10:33:39;;;;;;;6.28;2.33;;;;;;;21.80;12.12;97234.59;5052106;28;20067;-79
2021/01/31 10:36:28;;;;;;;5.95;2.75;;;;;;;22.49;11.22;97230.34;5047167;28;20268;-80
2021/01/31 10:39:09;;;;;;;7.40;3.00;;;;;;;22.43;11.65;97227.28;5044528;28;20029;-78
2021/01/31 10:41:37;;;;;;;3.90;2.35;;;;;;;22.41;10.96;97231.75;5045182;28;20075;-78
2021/01/31 10:44:06;;;;;;;5.10;2.78;;;;;;;22.42;11.94;97227.75;5053993;28;20025;-79
2021/01/31 10:46:34;;;;;;;5.63;2.75;;;;;;;22.64;11.08;97232.28;5057303;28;20435;-78
2021/01/31 10:49:00;;;;;;;4.63;2.28;;;;;;;22.91;11.23;97226.28;5059192;28;20029;-77
2021/01/31 10:51:30;;;;;;;5.03;2.60;;;;;;;23.00;11.31;97234.81;5058472;28;20032;-77
2021/01/31 10:53:56;;;;;;;4.50;2.67;;;;;;;22.62;10.88;97237.56;5069069;28;20060;-78
2021/01/31 10:56:22;;;;;;;7.47;3.05;;;;;;;22.34;11.32;97229.94;5058525;28;20071;-78
2021/01/31 10:58:48;;;;;;;4.90;2.20;;;;;;;22.42;11.12;97230.53;5076361;28;20572;-78
2021/01/31 11:01:14;;;;;;;6.03;2.92;;;;;;;22.02;11.11;97235.66;5063667;28;20389;-78
2021/01/31 11:03:41;;;;;;;5.20;3.00;;;;;;;19.61;12.99;97242.13;5066251;28;20032;-79
2021/01/31 11:06:07;;;;;;;8.55;2.97;;;;;;;20.51;12.15;97234.47;5074339;28;20059;-78
2021/01/31 11:08:33;;;;;;;5.90;3.05;;;;;;;21.05;12.22;97232.84;5076798;28;20036;-79
2021/01/31 11:11:00;;;;;;;6.40;3.17;;;;;;;21.67;11.57;97225.38;5072915;28;20033;-78
2021/01/31 11:13:27;;;;;;;6.95;3.65;;;;;;;20.80;12.46;97238.19;5056911;28;20032;-78
2021/01/31 11:15:54;;;;;;;10.90;4.88;;;;;;;18.13;13.86;97240.63;5067239;28;20500;-78
2021/01/31 11:18:20;;;;;;;5.45;2.65;;;;;;;19.31;13.53;97239.41;5079815;28;20604;-78
2021/01/31 11:20:48;;;;;;;5.38;3.03;;;;;;;20.78;12.43;97229.47;5044698;28;20468;-78
2021/01/31 11:23:14;;;;;;;7.32;3.60;;;;;;;20.44;12.44;97240.94;5070753;28;20086;-79
2021/01/31 11:25:40;;;;;;;12.32;6.15;;;;;;;18.21;13.75;97233.78;5093710;28;20032;-79
2021/01/31 11:28:08;;;;;;;8.15;4.70;;;;;;;17.63;14.59;97235.59;5089174;28;20500;-79
2021/01/31 11:30:34;;;;;;;7.30;3.20;;;;;;;18.78;13.84;97233.88;5080927;28;20682;-79
2021/01/31 11:33:01;;;;;;;7.85;4.10;;;;;;;19.30;13.40;97238.63;5086600;28;20031;-78
2021/01/31 11:35:28;;;;;;;8.88;4.47;;;;;;;18.60;13.49;97228.53;5095567;28;20103;-78
2021/01/31 11:37:55;;;;;;;10.10;4.70;;;;;;;17.48;14.63;97233.34;5085609;28;20033;-78
2021/01/31 11:40:22;;;;;;;15.13;5.70;;;;;;;15.73;15.76;97233.88;5055969;28;20033;-78
2021/01/31 11:42:48;;;;;;;12.65;5.45;;;;;;;15.34;16.43;97239.44;5055791;28;20029;-78
2021/01/31 11:45:17;;;;;;;9.80;4.45;;;;;;;17.23;15.19;97220.47;5066638;28;20033;-79
2021/01/31 11:47:43;;;;;;;9.07;3.97;;;;;;;19.43;13.27;97222.16;5080831;28;20079;-79
2021/01/31 11:50:11;;;;;;;12.35;5.40;;;;;;;18.58;13.80;97219.84;5069935;28;20437;-78
2021/01/31 11:52:37;;;;;;;10.65;5.10;;;;;;;18.78;13.46;97225.53;5096250;28;20028;-78
2021/01/31 11:55:05;;;;;;;9.02;4.40;;;;;;;19.62;13.27;97217.84;5092637;28;20400;-79
2021/01/31 11:57:31;;;;;;;13.65;6.28;;;;;;;16.81;15.03;97220.00;5076421;28;20377;-78